createdAt,value
2019-01-25T00:01:17.382Z,16.13
2019-01-25T00:04:07.110Z,15.30
2019-01-25T00:06:49.700Z,15.40
2019-01-25T00:09:39.456Z,15.83
2019-01-25T00:12:22.448Z,15.70
2019-01-25T00:15:12.670Z,16.53
2019-01-25T00:17:54.718Z,16.27
2019-01-25T00:20:44.534Z,16.67
2019-01-25T00:23:27.654Z,14.77
2019-01-25T00:26:36.840Z,14.93
2019-01-25T00:29:21.602Z,14.17
2019-01-25T00:32:12.299Z,15.67
2019-01-25T00:34:55.782Z,15.10
2019-01-25T00:37:45.549Z,15.73
2019-01-25T00:40:27.438Z,15.20
2019-01-25T00:43:11.766Z,15.83
2019-01-25T00:46:01.493Z,16.03
2019-01-25T00:48:44.878Z,15.90
2019-01-25T00:54:17.870Z,15.43
2019-01-25T00:57:07.642Z,16.20
2019-01-25T00:59:50.359Z,16.53
2019-01-25T01:02:40.496Z,15.60
2019-01-25T01:05:22.786Z,15.33
2019-01-25T01:08:12.560Z,16.90
2019-01-25T01:10:54.937Z,16.50
2019-01-25T01:13:44.718Z,15.53
2019-01-25T01:16:30.654Z,15.87
2019-01-25T01:19:20.393Z,14.93
2019-01-25T01:22:02.483Z,15.53
2019-01-25T01:24:52.246Z,16.77
2019-01-25T01:27:42.076Z,14.37
2019-01-25T01:30:24.486Z,15.10
2019-01-25T01:33:14.274Z,15.87
2019-01-25T01:36:04.023Z,17.30
2019-01-25T01:38:46.487Z,16.73
2019-01-25T01:41:36.281Z,17.63
2019-01-25T01:44:26.929Z,18.30
2019-01-25T01:47:10.535Z,17.43
2019-01-25T01:50:00.281Z,17.40
2019-01-25T01:52:51.289Z,18.67
2019-01-25T01:55:41.043Z,18.73
2019-01-25T01:58:43.593Z,17.87
2019-01-25T02:01:26.000Z,17.93
2019-01-25T02:04:15.744Z,18.40
2019-01-25T02:06:58.153Z,18.43
2019-01-25T02:09:47.913Z,18.93
2019-01-25T02:12:30.065Z,18.47
2019-01-25T02:15:20.709Z,18.23
2019-01-25T02:18:03.288Z,19.80
2019-01-25T02:20:53.077Z,18.70
2019-01-25T02:23:35.613Z,19.87
2019-01-25T02:26:25.374Z,17.37
2019-01-25T02:29:08.321Z,19.13
2019-01-25T02:31:58.095Z,18.60
2019-01-25T02:34:40.490Z,17.03
2019-01-25T02:37:30.265Z,17.50
2019-01-25T02:40:13.423Z,16.43
2019-01-25T02:43:03.201Z,15.93
2019-01-25T02:45:46.873Z,18.07
2019-01-25T02:48:36.603Z,18.23
2019-01-25T02:51:26.461Z,18.43
2019-01-25T02:54:16.194Z,18.63
2019-01-25T02:57:00.699Z,18.53
2019-01-25T02:59:50.428Z,18.37
2019-01-25T03:02:32.794Z,18.57
2019-01-25T03:05:22.951Z,18.60
2019-01-25T03:08:04.853Z,17.63
2019-01-25T03:10:54.642Z,19.60
2019-01-25T03:13:37.361Z,19.50
2019-01-25T03:16:27.073Z,19.40
2019-01-25T03:19:09.000Z,19.53
2019-01-25T03:21:58.739Z,16.60
2019-01-25T03:24:42.158Z,19.13
2019-01-25T03:27:31.916Z,18.07
2019-01-25T03:30:15.192Z,18.67
2019-01-25T03:33:04.956Z,18.30
2019-01-25T03:35:48.719Z,18.50
2019-01-25T03:38:38.461Z,18.67
2019-01-25T03:41:21.138Z,18.43
2019-01-25T03:47:11.917Z,19.03
2019-01-25T04:08:22.182Z,17.17
2019-01-25T04:11:11.956Z,17.27
2019-01-25T04:13:56.010Z,20.27
2019-01-25T04:16:45.771Z,18.60
2019-01-25T04:19:28.113Z,18.53
2019-01-25T04:22:17.889Z,18.53
2019-01-25T04:25:00.486Z,19.13
2019-01-25T04:27:31.198Z,19.97
2019-01-25T04:30:22.978Z,19.70
2019-01-25T04:33:05.935Z,20.67
2019-01-25T04:35:36.605Z,19.67
2019-01-25T04:38:26.387Z,20.27
2019-01-25T04:41:11.710Z,22.10
2019-01-25T04:43:59.975Z,21.77
2019-01-25T04:46:49.808Z,18.77
2019-01-25T04:49:39.691Z,18.63
2019-01-25T04:52:29.526Z,18.93
2019-01-25T04:55:21.576Z,18.47
2019-01-25T04:58:34.630Z,17.77
2019-01-25T05:01:16.892Z,17.97
2019-01-25T05:03:47.565Z,18.43
2019-01-25T05:09:37.373Z,19.20
2019-01-25T05:12:27.110Z,19.00
2019-01-25T05:15:10.097Z,19.03
2019-01-25T05:17:57.009Z,19.53
2019-01-25T05:20:39.142Z,19.07
2019-01-25T05:23:28.947Z,18.73
2019-01-25T05:26:21.791Z,19.03
2019-01-25T05:29:24.961Z,19.13
2019-01-25T05:32:07.157Z,17.43
2019-01-25T05:34:56.952Z,18.23
2019-01-25T05:37:39.321Z,19.63
2019-01-25T05:40:29.047Z,19.53
2019-01-25T05:43:11.889Z,19.83
2019-01-25T05:46:01.630Z,18.13
2019-01-25T05:48:44.144Z,20.17
2019-01-25T05:51:33.961Z,19.97
2019-01-25T05:54:16.129Z,20.30
2019-01-25T05:57:05.885Z,18.97
2019-01-25T05:59:48.088Z,20.90
2019-01-25T06:02:37.871Z,19.07
2019-01-25T06:05:19.999Z,20.60
2019-01-25T06:08:32.339Z,20.10
2019-01-25T06:11:15.313Z,18.57
2019-01-25T06:14:05.075Z,17.63
2019-01-25T06:16:47.339Z,20.07
2019-01-25T06:19:40.100Z,18.37
2019-01-25T06:22:22.163Z,18.80
2019-01-25T06:25:05.547Z,20.13
2019-01-25T06:27:55.280Z,20.57
2019-01-25T06:30:37.843Z,20.80
2019-01-25T06:33:28.629Z,20.43
2019-01-25T06:36:18.438Z,19.93
2019-01-25T06:39:09.928Z,19.63
2019-01-25T06:41:59.659Z,19.40
2019-01-25T06:44:49.411Z,20.80
2019-01-25T06:47:33.009Z,20.87
2019-01-25T06:50:22.731Z,19.53
2019-01-25T06:53:04.983Z,19.67
2019-01-25T06:55:54.761Z,21.17
2019-01-25T06:58:56.980Z,20.33
2019-01-25T07:02:05.587Z,19.17
2019-01-25T07:04:47.603Z,20.03
2019-01-25T07:13:37.425Z,19.30
2019-01-25T07:16:27.197Z,20.00
2019-01-25T07:19:09.338Z,20.63
2019-01-25T07:21:59.175Z,20.57
2019-01-25T07:24:49.437Z,20.30
2019-01-25T07:27:39.195Z,19.27
2019-01-25T07:30:29.008Z,20.47
2019-01-25T07:33:11.310Z,20.13
2019-01-25T07:36:01.169Z,21.10
2019-01-25T07:38:50.958Z,20.30
2019-01-25T07:41:40.761Z,21.37
2019-01-25T07:44:30.586Z,20.07
2019-01-25T07:47:20.423Z,21.53
2019-01-25T07:50:29.366Z,20.10
2019-01-25T07:53:37.925Z,21.93
2019-01-25T07:56:20.176Z,20.80
2019-01-25T08:02:13.620Z,21.60
2019-01-25T08:04:55.893Z,21.57
2019-01-25T08:07:45.686Z,22.90
2019-01-25T08:10:35.623Z,21.50
2019-01-25T08:13:25.460Z,21.60
2019-01-25T08:16:15.280Z,21.90
2019-01-25T08:18:58.632Z,21.57
2019-01-25T08:22:07.540Z,21.90
2019-01-25T08:24:38.630Z,22.10
2019-01-25T08:27:28.519Z,22.03
2019-01-25T08:30:12.003Z,22.93
2019-01-25T08:33:01.804Z,23.03
2019-01-25T08:35:44.057Z,21.67
2019-01-25T08:38:33.751Z,24.03
2019-01-25T08:41:16.628Z,22.43
2019-01-25T08:44:06.430Z,23.27
2019-01-25T08:46:48.799Z,24.40
2019-01-25T08:52:40.560Z,23.63
2019-01-25T08:55:30.275Z,22.23
2019-01-25T08:58:12.699Z,21.87
2019-01-25T09:01:02.488Z,22.77
2019-01-25T09:03:45.324Z,22.87
2019-01-25T09:06:35.069Z,22.97
2019-01-25T09:09:17.969Z,22.50
2019-01-25T09:12:07.724Z,23.47
2019-01-25T09:14:50.340Z,22.17
2019-01-25T09:17:40.110Z,23.93
2019-01-25T09:20:23.064Z,22.67
2019-01-25T09:23:12.800Z,22.57
2019-01-25T09:26:00.946Z,20.17
2019-01-25T09:28:46.564Z,23.47
2019-01-25T09:31:29.154Z,22.03
2019-01-25T09:34:18.909Z,21.57
2019-01-25T09:37:01.578Z,21.70
2019-01-25T09:39:51.307Z,22.57
2019-01-25T09:42:33.517Z,20.43
2019-01-25T09:45:23.371Z,21.40
2019-01-25T09:48:06.013Z,21.33
2019-01-25T09:50:36.766Z,22.50
2019-01-25T09:53:26.531Z,22.07
2019-01-25T09:56:08.629Z,24.63
2019-01-25T09:58:59.060Z,21.33
2019-01-25T10:01:48.878Z,22.37
2019-01-25T10:04:38.810Z,21.67
2019-01-25T10:07:28.634Z,21.53
2019-01-25T10:10:18.482Z,20.53
2019-01-25T10:13:08.296Z,21.37
2019-01-25T10:15:58.121Z,19.77
2019-01-25T10:21:56.701Z,22.00
2019-01-25T10:24:39.517Z,19.33
2019-01-25T10:30:16.585Z,20.27
2019-01-25T10:33:06.527Z,20.33
2019-01-25T10:35:53.123Z,19.70
2019-01-25T10:38:42.863Z,18.77
2019-01-25T10:41:25.079Z,20.70
2019-01-25T10:44:14.875Z,19.33
2019-01-25T10:46:58.217Z,19.30
2019-01-25T10:49:47.967Z,19.70
2019-01-25T10:52:30.181Z,19.70
2019-01-25T10:55:19.948Z,20.00
2019-01-25T10:58:02.600Z,21.07
2019-01-25T11:00:33.303Z,19.57
2019-01-25T11:03:23.024Z,20.67
2019-01-25T11:06:05.429Z,19.10
2019-01-25T11:08:55.275Z,20.70
2019-01-25T11:14:32.636Z,19.13
2019-01-25T11:17:22.398Z,19.97
2019-01-25T11:20:06.317Z,18.83
2019-01-25T11:22:56.192Z,19.20
2019-01-25T11:25:39.296Z,21.80
2019-01-25T11:28:29.011Z,22.40
2019-01-25T11:31:11.309Z,21.60
2019-01-25T11:34:01.061Z,22.23
2019-01-25T11:36:47.531Z,20.30
2019-01-25T11:39:37.316Z,19.83
2019-01-25T11:42:19.636Z,21.73
2019-01-25T11:45:10.515Z,21.27
2019-01-25T11:47:55.005Z,20.87
2019-01-25T11:50:44.782Z,21.30
2019-01-25T11:53:26.948Z,20.73
2019-01-25T11:56:16.712Z,21.30
2019-01-25T12:02:20.853Z,20.47
2019-01-25T12:08:18.767Z,20.00
2019-01-25T12:11:08.567Z,20.73
2019-01-25T12:13:52.257Z,19.90
2019-01-25T12:16:41.975Z,20.87
2019-01-25T12:19:23.911Z,20.83
2019-01-25T12:22:13.670Z,19.30
2019-01-25T12:24:57.020Z,18.87
2019-01-25T12:27:46.835Z,18.60
2019-01-25T12:36:34.054Z,16.33
2019-01-25T12:39:24.432Z,16.60
2019-01-25T12:42:14.183Z,18.17
2019-01-25T12:45:04.061Z,18.63
2019-01-25T12:47:53.823Z,18.83
2019-01-25T12:51:22.544Z,18.90
2019-01-25T12:57:04.005Z,18.47
2019-01-25T12:59:53.796Z,18.20
2019-01-25T13:02:38.086Z,18.57
2019-01-25T13:05:27.819Z,19.27
2019-01-25T13:08:10.980Z,17.57
2019-01-25T13:11:00.734Z,17.87
2019-01-25T13:13:45.601Z,17.27
2019-01-25T13:16:35.303Z,15.73
2019-01-25T13:19:17.805Z,15.87
2019-01-25T13:22:07.538Z,18.00
2019-01-25T13:24:49.834Z,15.53
2019-01-25T13:27:39.591Z,13.70
2019-01-25T13:30:22.820Z,13.43
2019-01-25T13:33:12.540Z,15.60
2019-01-25T13:36:01.476Z,14.77
2019-01-25T13:38:51.221Z,15.33
2019-01-25T13:41:38.098Z,14.37
2019-01-25T13:44:30.240Z,15.17
2019-01-25T13:47:13.106Z,15.27
2019-01-25T13:55:55.210Z,15.57
2019-01-25T13:58:45.072Z,14.90
2019-01-25T14:01:34.948Z,15.97
2019-01-25T14:04:17.489Z,15.60
2019-01-25T14:07:07.234Z,15.43
2019-01-25T14:09:49.517Z,16.57
2019-01-25T14:12:39.248Z,16.00
2019-01-25T14:18:21.537Z,12.80
2019-01-25T14:21:11.491Z,11.20
2019-01-25T14:23:56.914Z,10.03
2019-01-25T14:26:46.724Z,10.87
2019-01-25T14:29:29.447Z,12.43
2019-01-25T14:32:19.214Z,11.87
2019-01-25T14:35:09.106Z,12.70
2019-01-25T14:37:59.034Z,11.53
2019-01-25T14:40:48.840Z,12.27
2019-01-25T14:46:33.295Z,12.60
2019-01-25T14:52:06.429Z,12.83
2019-01-25T14:54:56.706Z,12.30
2019-01-25T14:57:43.415Z,12.13
2019-01-25T15:00:33.156Z,12.90
2019-01-25T15:03:15.689Z,12.50
2019-01-25T15:06:05.564Z,11.50
2019-01-25T15:08:47.629Z,12.10
2019-01-25T15:11:37.517Z,12.10
2019-01-25T15:14:19.684Z,11.20
2019-01-25T15:17:22.071Z,11.83
2019-01-25T15:20:05.671Z,10.53
2019-01-25T15:22:55.405Z,10.70
2019-01-25T15:25:37.313Z,10.57
2019-01-25T15:28:27.083Z,10.73
2019-01-25T15:31:09.561Z,11.53
2019-01-25T15:36:51.159Z,11.07
2019-01-25T15:39:41.873Z,10.60
2019-01-25T15:42:31.724Z,10.67
2019-01-25T15:48:03.495Z,10.27
2019-01-25T15:50:53.265Z,10.03
2019-01-25T15:53:43.045Z,10.67
2019-01-25T15:56:32.815Z,12.33
2019-01-25T15:59:19.615Z,9.67
2019-01-25T16:02:09.391Z,9.87
2019-01-25T16:04:55.705Z,9.80
2019-01-25T16:07:45.441Z,9.73
2019-01-25T16:10:27.973Z,9.70
2019-01-25T16:13:17.718Z,10.23
2019-01-25T16:16:01.593Z,10.17
2019-01-25T16:18:51.314Z,9.40
2019-01-25T16:21:33.664Z,9.87
2019-01-25T16:24:23.427Z,9.63
2019-01-25T16:27:05.739Z,9.80
2019-01-25T16:29:55.465Z,10.37
2019-01-25T16:32:37.949Z,9.17
2019-01-25T16:35:27.713Z,10.17
2019-01-25T16:38:10.009Z,10.13
2019-01-25T16:40:59.791Z,10.33
2019-01-25T16:43:47.241Z,10.07
2019-01-25T16:46:37.000Z,10.27
2019-01-25T16:49:20.400Z,10.53
2019-01-25T16:52:10.244Z,10.00
2019-01-25T16:54:52.845Z,10.67
2019-01-25T16:57:42.715Z,10.80
2019-01-25T17:00:36.174Z,11.40
2019-01-25T17:03:25.960Z,11.83
2019-01-25T17:06:07.914Z,11.17
2019-01-25T17:08:57.702Z,12.57
2019-01-25T17:11:39.966Z,13.73
2019-01-25T17:14:33.543Z,12.47
2019-01-25T17:17:14.056Z,12.50
2019-01-25T17:20:03.834Z,10.73
2019-01-25T17:22:53.545Z,11.00
2019-01-25T17:25:43.366Z,10.67
2019-01-25T17:28:33.170Z,10.17
2019-01-25T17:31:22.929Z,10.13
2019-01-25T17:34:12.710Z,10.53
2019-01-25T17:36:55.372Z,10.53
2019-01-25T17:39:45.214Z,10.93
2019-01-25T17:42:54.146Z,11.83
2019-01-25T17:45:43.968Z,12.00
2019-01-25T17:48:34.100Z,15.30
2019-01-25T17:51:23.873Z,12.73
2019-01-25T17:54:13.729Z,13.17
2019-01-25T17:57:03.804Z,12.43
2019-01-25T17:59:51.709Z,13.27
2019-01-25T18:02:35.391Z,13.27
2019-01-25T18:08:36.188Z,12.83
2019-01-25T18:11:22.826Z,13.13
2019-01-25T18:17:15.117Z,12.60
2019-01-25T18:20:05.594Z,12.13
2019-01-25T18:22:47.612Z,12.93
2019-01-25T18:26:15.473Z,13.43
2019-01-25T18:29:02.510Z,13.47
2019-01-25T18:31:52.274Z,12.87
2019-01-25T18:34:35.171Z,13.27
2019-01-25T18:37:24.916Z,14.20
2019-01-25T18:40:08.288Z,15.10
2019-01-25T18:42:58.026Z,14.00
2019-01-25T18:45:40.394Z,13.90
2019-01-25T18:48:30.109Z,13.57
2019-01-25T18:51:13.024Z,13.53
2019-01-25T18:54:02.772Z,13.00
2019-01-25T18:56:46.514Z,13.17
2019-01-25T18:59:36.268Z,13.30
2019-01-25T19:02:18.254Z,13.33
2019-01-25T19:05:08.880Z,12.33
2019-01-25T19:07:50.844Z,14.17
2019-01-25T19:10:40.631Z,13.97
2019-01-25T19:13:22.771Z,16.83
2019-01-25T19:16:12.513Z,18.70
2019-01-25T19:18:54.780Z,19.27
2019-01-25T19:21:44.562Z,17.50
2019-01-25T19:24:27.395Z,17.47
2019-01-25T19:27:17.237Z,15.27
2019-01-25T19:30:28.024Z,16.07
2019-01-25T19:33:17.836Z,15.57
2019-01-25T19:36:00.493Z,14.60
2019-01-25T19:38:50.272Z,15.10
2019-01-25T19:41:40.794Z,17.53
2019-01-25T19:44:24.156Z,14.47
2019-01-25T19:47:14.113Z,15.40
2019-01-25T19:50:04.044Z,15.73
2019-01-25T19:52:53.974Z,16.57
2019-01-25T19:55:43.771Z,15.07
2019-01-25T19:58:33.521Z,16.30
2019-01-25T20:01:16.057Z,15.53
2019-01-25T20:04:24.861Z,15.10
2019-01-25T20:07:14.662Z,14.27
2019-01-25T20:10:16.788Z,14.30
2019-01-25T20:12:59.280Z,13.30
2019-01-25T20:15:49.095Z,12.60
2019-01-25T20:18:38.873Z,13.97
2019-01-25T20:27:04.483Z,12.70
2019-01-25T20:29:54.237Z,13.93
2019-01-25T20:32:36.659Z,12.13
2019-01-25T20:35:28.865Z,11.57
2019-01-25T20:38:11.635Z,11.67
2019-01-25T20:41:01.410Z,10.73
2019-01-25T20:43:44.957Z,10.87
2019-01-25T20:46:34.699Z,11.50
2019-01-25T20:49:18.315Z,12.47
2019-01-25T20:52:08.087Z,11.43
2019-01-25T20:54:50.638Z,10.83
2019-01-25T20:57:40.383Z,11.50
2019-01-25T21:00:24.192Z,11.23
2019-01-25T21:03:15.858Z,11.77
2019-01-25T21:05:58.003Z,10.57
2019-01-25T21:08:47.777Z,11.63
2019-01-25T21:11:30.497Z,12.37
2019-01-25T21:14:20.322Z,12.00
2019-01-25T21:17:02.808Z,11.90
2019-01-25T21:19:52.542Z,10.83
2019-01-25T21:22:42.288Z,10.57
2019-01-25T21:25:24.663Z,11.77
2019-01-25T21:28:26.752Z,11.50
2019-01-25T21:30:57.495Z,11.03
2019-01-25T21:33:47.228Z,11.13
2019-01-25T21:36:29.348Z,10.70
2019-01-25T21:39:19.543Z,10.67
2019-01-25T21:42:01.578Z,9.70
2019-01-25T21:44:51.338Z,10.07
2019-01-25T21:47:33.248Z,10.87
2019-01-25T21:50:25.694Z,10.03
2019-01-25T21:53:08.138Z,9.60
2019-01-25T21:58:33.521Z,9.37
2019-01-25T22:01:23.424Z,9.17
2019-01-25T22:04:13.283Z,10.63
2019-01-25T22:09:59.184Z,9.83
2019-01-25T22:12:49.029Z,9.53
2019-01-25T22:15:31.263Z,9.40
2019-01-25T22:18:20.963Z,9.13
2019-01-25T22:21:03.787Z,9.50
2019-01-25T22:23:53.551Z,9.87
2019-01-25T22:26:36.162Z,9.53
2019-01-25T22:29:25.901Z,9.43
2019-01-25T22:32:15.637Z,9.27
2019-01-25T22:37:56.869Z,9.70
2019-01-25T22:40:33.183Z,9.47
2019-01-25T22:43:05.432Z,8.90
2019-01-25T22:45:50.495Z,9.50
2019-01-25T22:48:33.571Z,9.70
2019-01-25T22:51:23.393Z,9.83
2019-01-25T22:57:16.986Z,9.43
2019-01-25T22:59:59.806Z,9.17
2019-01-25T23:02:49.579Z,10.93
2019-01-25T23:06:17.587Z,9.40
2019-01-25T23:09:40.012Z,8.63
2019-01-25T23:12:10.958Z,8.60
2019-01-25T23:15:00.705Z,9.07
2019-01-25T23:17:50.483Z,7.93
2019-01-25T23:20:33.123Z,8.90
2019-01-25T23:23:22.845Z,9.33
2019-01-25T23:26:05.359Z,8.37
2019-01-25T23:28:55.107Z,8.60
2019-01-25T23:31:37.717Z,8.70
2019-01-25T23:34:27.667Z,8.43
2019-01-25T23:37:10.031Z,8.47
2019-01-25T23:39:59.791Z,8.00
2019-01-25T23:42:42.197Z,8.47
2019-01-25T23:45:32.055Z,7.50
2019-01-25T23:48:14.405Z,7.43
2019-01-25T23:51:04.135Z,8.03
2019-01-25T23:53:46.302Z,8.20
2019-01-25T23:59:28.256Z,6.87
